Terminal Aerodrome Forecast
Issued by NWS Mobile, AL

Home | Current Version | Previous Version | Text Only | Print | Product List | Glossary On
Versions: 1 2 3 4 5 6 7 8 9 10 11 12 13
000
FTUS44 KMOB 271720
TAFPNS
TAF
KPNS 271720Z 2718/2818 20015G23KT P6SM BKN008 BKN013 OVC019
     FM280100 19010KT P6SM OVC007
     FM281500 16012KT P6SM BKN020=

USA.gov is the U.S. government's official web portal to all federal, state and local government web resources and services.